Latest Coastal Weather Observations for Mandora

IDW60701

Issued at 4:52 am WST Monday 30 March 2015 (issued every 10 minutes, with the page automatically refreshed every 10 minutes)

About coastal observations | Map of coastal stations | Coastal observations for WA | Marine services | Other Formats
Station Details ID: 004019 Name: MANDORA Lat: -19.74 Lon: 120.84 Height: 7.5 m
Data from the previous 72 hours. | See also: Recent months at Mandora
Date/Time
WST
Temp

°C
Wind Pressure Rain
since 9am
mm
Weather Cloud Vis
km
Sea
Height
m
Swell
Dir
 
Speed
knots
Gust
knots
hPa Trend Height
m
Period
s
Dir
30/04:30am 26.7 SSE 5 6 1012.5 - 0.0 - - - - - - -
30/04:00am 26.6 SSE 4 6 1012.4 - 0.0 - - - - - - -
30/03:30am 26.5 SE 3 4 1012.2 - 0.0 - - - - - - -
30/03:00am 26.5 ESE 1 4 1012.3 - 0.0 - - - - - - -
30/02:30am 26.5 SE 4 5 1012.4 - 0.0 - - - - - - -
30/02:00am 26.5 S 2 4 1012.6 - 0.0 - - - - - - -
30/01:30am 26.6 S 4 5 1012.7 - 0.0 - - - - - - -
30/01:00am 26.7 SW 2 3 1012.7 - 0.0 - - - - - - -
30/12:30am 26.9 N 1 3 1012.9 - 0.0 - - - - - - -
30/12:00am 27.1 NNW 4 5 1013.4 - 0.0 - - - - - - -
 
Date/Time
WST
Temp

°C
Wind Pressure Rain
since 9am
mm
Weather Cloud Vis
km
Sea
Height
m
Swell
Dir
 
Speed
knots
Gust
knots
hPa Trend Height
m
Period
s
Dir
29/11:30pm 27.2 CALM 0 0 1014.0 - 0.0 - - - - - - -
29/11:00pm 27.4 CALM 0 0 1014.0 - 0.0 - - - - - - -
29/10:30pm 27.5 N 4 6 1014.3 - 0.0 - - - - - - -
29/10:00pm 27.6 N 8 10 1014.7 - 0.0 - - - - - - -
29/09:30pm 27.5 NNW 3 4 1014.4 - 0.0 - - - - - - -
29/09:00pm 27.5 NNW 4 4 1014.4 - 0.0 - - - - - - -
29/08:30pm 27.7 N 4 5 1014.3 - 0.0 - - - - - - -
29/08:00pm 27.8 NW 2 4 1013.9 - 0.0 - - - - - - -
29/07:30pm 28.1 WNW 2 5 1013.2 - 0.0 - - - - - - -
29/07:00pm 28.4 WNW 4 6 1013.2 - 0.0 - - - - - - -
29/06:30pm 28.9 N 5 7 1013.0 - 0.0 - - - - - - -
29/06:00pm 29.5 N 4 8 1012.7 - 0.0 - - - - - - -
29/05:30pm 30.0 NNE 6 8 1012.6 - 0.0 - - - - - - -
29/05:00pm 30.4 N 8 13 1012.3 - 0.0 - - - - - - -
29/04:30pm 30.6 N 10 15 1011.8 - 0.0 - - - - - - -
29/04:00pm 31.0 N 9 14 1011.7 - 0.0 - - - - - - -
29/03:30pm 31.4 NNE 9 13 1011.6 - 0.0 - - - - - - -
29/03:00pm 31.3 NNE 11 18 1011.6 - 0.0 - - - - - - -
29/02:30pm 33.1 NNE 9 15 1011.4 - 0.0 - - - - - - -
29/02:00pm 34.4 N 11 16 1011.3 - 0.0 - - - - - - -
29/01:30pm 35.3 N 9 13 1011.3 - 0.0 - - - - - - -
29/01:00pm 34.9 ENE 8 14 1011.8 - 0.0 - - - - - - -
29/12:30pm 34.0 ENE 10 17 1012.2 - 0.0 - - - - - - -
29/12:00pm 32.7 E 8 13 1012.5 - 0.0 - - - - - - -
29/11:30am 32.5 E 7 12 1013.1 - 0.0 - - - - - - -
29/11:00am 31.6 E 8 13 1013.7 - 0.0 - - - - - - -
29/10:30am 31.4 ESE 8 13 1013.8 - 0.0 - - - - - - -
29/10:00am 31.5 E 8 14 1014.0 - 0.0 - - - - - - -
29/09:30am 31.3 E 7 11 1014.3 - 0.0 - - - - - - -
29/09:00am 30.8 E 7 11 1014.0 - 0.0 - - - - - - -
29/08:30am 29.6 E 6 9 1014.1 - 0.0 - - - - - - -
29/08:00am 28.6 ESE 5 9 1013.7 - 0.0 - - - - - - -
29/07:30am 27.2 SE 5 8 1013.2 - 0.0 - - - - - - -
29/07:00am 26.3 ESE 4 6 1012.7 - 0.0 - - - - - - -
29/06:30am 25.0 ESE 3 5 1012.5 - 0.0 - - - - - - -
29/06:00am 24.7 ESE 3 5 1011.8 - 0.0 - - - - - - -
29/05:30am 25.2 E 4 5 1011.9 - 0.0 - - - - - - -
29/05:00am 25.4 ESE 4 5 1011.8 - 0.0 - - - - - - -
29/04:30am 25.7 ESE 4 5 1011.5 - 0.0 - - - - - - -
29/04:00am 26.1 ESE 4 6 1011.3 - 0.0 - - - - - - -
29/03:30am 26.1 ESE 4 5 1011.2 - 0.0 - - - - - - -
29/03:00am 26.6 E 4 7 1011.2 - 0.0 - - - - - - -
29/02:30am 27.1 ENE 7 11 1011.3 - 0.0 - - - - - - -
29/02:00am 27.2 ENE 6 9 1011.6 - 0.0 - - - - - - -
29/01:30am 27.6 NE 9 14 1011.6 - 0.0 - - - - - - -
29/01:00am 27.7 ENE 6 12 1012.1 - 0.0 - - - - - - -
29/12:30am 27.9 ENE 5 8 1012.3 - 0.0 - - - - - - -
29/12:00am 28.1 ENE 5 8 1012.3 - 0.0 - - - - - - -
 
Date/Time
WST
Temp

°C
Wind Pressure Rain
since 9am
mm
Weather Cloud Vis
km
Sea
Height
m
Swell
Dir
 
Speed
knots
Gust
knots
hPa Trend Height
m
Period
s
Dir
28/11:30pm 27.6 ENE 5 7 1012.5 - 0.0 - - - - - - -
28/11:00pm 26.8 ESE 4 5 1012.5 - 0.0 - - - - - - -
28/10:30pm 27.1 ESE 4 5 1012.5 - 0.0 - - - - - - -
28/10:00pm 27.3 E 4 4 1012.5 - 0.0 - - - - - - -
28/09:30pm 27.5 NE 4 5 1012.6 - 0.0 - - - - - - -
28/09:00pm 28.0 NNE 3 4 1012.4 - 0.0 - - - - - - -
28/08:30pm 28.0 NNE 5 6 1012.2 - 0.0 - - - - - - -
28/08:00pm 28.1 NNE 6 7 1011.8 - 0.0 - - - - - - -
28/07:30pm 28.3 N 4 5 1011.2 - 0.0 - - - - - - -
28/07:00pm 28.7 NNW 3 5 1010.6 - 0.0 - - - - - - -
28/06:30pm 28.9 N 5 6 1010.5 - 0.0 - - - - - - -
28/06:00pm 30.0 N 4 6 1009.7 - 0.0 - - - - - - -
28/05:30pm 31.3 NNW 5 7 1009.4 - 0.0 - - - - - - -
28/05:00pm 32.2 N 7 10 1009.4 - 0.0 - - - - - - -
28/04:30pm 33.0 NNW 7 9 1009.2 - 0.0 - - - - - - -
28/04:00pm 33.4 N 7 11 1009.3 - 0.0 - - - - - - -
28/03:30pm 34.4 N 10 14 1009.1 - 0.0 - - - - - - -
28/03:00pm 34.9 N 8 11 1009.1 - 0.0 - - - - - - -
28/02:30pm 34.5 N 9 12 1009.5 - 0.0 - - - - - - -
28/02:00pm 35.8 NNE 6 9 1009.6 - 0.0 - - - - - - -
28/01:30pm 36.4 E 7 11 1010.0 - 0.0 - - - - - - -
28/01:00pm 35.9 ENE 8 15 1010.6 - 0.0 - - - - - - -
28/12:30pm 35.8 ENE 9 17 1011.0 - 0.0 - - - - - - -
28/12:00pm 35.7 E 8 11 1011.5 - 0.0 - - - - - - -
28/11:30am 35.0 ENE 7 11 1012.1 - 0.0 - - - - - - -
28/11:00am 34.7 E 7 12 1012.7 - 0.0 - - - - - - -
28/10:30am 33.9 E 8 13 1013.0 - 0.0 - - - - - - -
28/10:00am 33.5 ESE 8 16 1013.2 - 0.0 - - - - - - -
28/09:30am 32.3 ESE 9 14 1013.5 - 0.0 - - - - - - -
28/09:00am 31.1 ESE 9 14 1013.6 - 0.0 - - - - - - -
28/08:30am 29.9 SE 10 15 1013.5 - 0.0 - - - - - - -
28/08:00am 28.3 SE 10 15 1013.3 - 0.0 - - - - - - -
28/07:30am 26.5 SE 10 15 1012.7 - 0.0 - - - - - - -
28/07:00am 25.2 SE 9 12 1012.4 - 0.0 - - - - - - -
28/06:30am 24.9 SE 8 11 1012.2 - 0.0 - - - - - - -
28/06:00am 25.1 SE 9 13 1011.8 - 0.0 - - - - - - -
28/05:30am 25.6 SE 8 15 1011.8 - 0.0 - - - - - - -
28/05:00am 26.0 SE 9 14 1011.8 - 0.0 - - - - - - -
28/04:30am 26.1 SE 9 16 1011.5 - 0.0 - - - - - - -
28/04:00am 26.2 SE 7 13 1011.4 - 0.0 - - - - - - -
28/03:30am 26.5 SSE 7 11 1011.4 - 0.0 - - - - - - -
28/03:00am 26.9 SSE 9 13 1011.0 - 0.0 - - - - - - -
28/02:30am 27.3 SSE 8 13 1011.2 - 0.0 - - - - - - -
28/02:00am 27.8 SSE 11 17 1011.2 - 0.0 - - - - - - -
28/01:30am 28.3 SSE 10 15 1011.2 - 0.0 - - - - - - -
28/01:00am 28.7 SSE 11 16 1011.5 - 0.0 - - - - - - -
28/12:30am 28.7 S 8 13 1011.8 - 0.0 - - - - - - -
28/12:00am 28.4 S 7 8 1011.8 - 0.0 - - - - - - -
 
Date/Time
WST
Temp

°C
Wind Pressure Rain
since 9am
mm
Weather Cloud Vis
km
Sea
Height
m
Swell
Dir
 
Speed
knots
Gust
knots
hPa Trend Height
m
Period
s
Dir
27/11:30pm 27.0 SSW 7 10 1012.0 - 0.0 - - - - - - -
27/11:00pm 26.2 SW 6 8 1012.1 - 0.0 - - - - - - -
27/10:30pm 26.8 SW 7 9 1012.5 - 0.0 - - - - - - -
27/10:00pm 26.4 SW 6 7 1012.5 - 0.0 - - - - - - -
27/09:30pm 26.5 SW 6 7 1012.3 - 0.0 - - - - - - -
27/09:00pm 26.1 SSW 6 8 1012.0 - 0.0 - - - - - - -
27/08:30pm 26.3 SW 5 6 1011.9 - 0.0 - - - - - - -
27/08:00pm 26.4 SW 6 7 1011.6 - 0.0 - - - - - - -
27/07:30pm 26.8 SW 5 6 1011.2 - 0.0 - - - - - - -
27/07:00pm 27.8 WSW 5 6 1011.0 - 0.0 - - - - - - -
27/06:30pm 28.5 WSW 5 6 1010.5 - 0.0 - - - - - - -
27/06:00pm 29.6 W 6 7 1010.2 - 0.0 - - - - - - -
27/05:30pm 31.8 WNW 5 8 1010.1 - 0.0 - - - - - - -
27/05:00pm 33.0 WNW 7 9 1010.1 - 0.0 - - - - - - -
27/04:30pm 33.8 WNW 7 9 1009.9 - 0.0 - - - - - - -
27/04:00pm 34.6 WNW 7 10 1010.0 - 0.0 - - - - - - -
27/03:30pm 34.8 NW 7 11 1010.0 - 0.0 - - - - - - -
27/03:00pm 35.2 NW 7 10 1009.8 - 0.0 - - - - - - -
27/02:30pm 35.3 NNW 8 12 1010.0 - 0.0 - - - - - - -
27/02:00pm 35.3 N 9 14 1010.3 - 0.0 - - - - - - -
27/01:30pm 35.6 N 9 13 1010.7 - 0.0 - - - - - - -
27/01:00pm 35.3 N 10 14 1011.1 - 0.0 - - - - - - -
27/12:30pm 35.6 N 9 15 1011.7 - 0.0 - - - - - - -
27/12:00pm 35.2 N 10 14 1012.1 - 0.0 - - - - - - -
27/11:30am 35.3 NNE 11 16 1012.8 - 0.0 - - - - - - -
27/11:00am 35.9 NNE 8 14 1013.3 - 0.0 - - - - - - -
27/10:30am 35.6 E 7 15 1013.8 - 0.0 - - - - - - -
27/10:00am 34.5 ENE 9 15 1014.4 - 0.0 - - - - - - -
27/09:30am 33.9 ENE 6 11 1014.6 - 0.0 - - - - - - -
27/09:00am 33.3 E 7 11 1014.6 - 0.0 - - - - - - -
27/08:30am 32.0 E 6 10 1014.7 - 0.0 - - - - - - -
27/08:00am 30.5 E 5 8 1014.5 - 0.0 - - - - - - -
27/07:30am 27.8 ESE 6 9 1014.3 - 0.0 - - - - - - -
27/07:00am 26.6 ESE 6 9 1013.9 - 0.0 - - - - - - -
27/06:30am 25.7 SE 6 8 1013.8 - 0.0 - - - - - - -
27/06:00am 25.8 SE 6 7 1013.5 - 0.0 - - - - - - -
27/05:30am 26.2 SSE 6 8 1013.4 - 0.0 - - - - - - -
27/05:00am 25.4 S 6 7 1013.1 - 0.0 - - - - - - -

Other Formats:

Comma delimited format used in spreadsheet applications
http://www.bom.gov.au/fwo/IDW60701/IDW60701.94200.axf

JavaScript Object Notation format (JSON) in row-major order
http://www.bom.gov.au/fwo/IDW60701/IDW60701.94200.json